Flight Track Log - Related Links

Times and Time Zones

All times are in EDT time to prevent confusion due to time zone crossing. See the N518AM flight status page for this flight to view local times or setup timezone preferences in your user account.

Time Position Orientation Groundspeed Altitude Reporting Facility
EDT Latitude Longitude Course Direction KTS MPH feet Rate Location/Type
Tue 06:19:01 PM 27.3833 -82.5333 90° East 117 135 900  Level Tampa TRACON
Tue 06:20:01 PM 27.3833 -82.5000 90° East 112 129 1,600 700 Climbing Tampa TRACON
Tue 06:21:01 PM 27.3833 -82.4667 90° East 118 136 2,300 750 Climbing Tampa TRACON
Tue 06:22:01 PM 27.4167 -82.4500 24° Northeast 133 153 3,100 650 Climbing Tampa TRACON
Tue 06:23:01 PM 27.4333 -82.5000 291° West 155 178 3,600 500 Climbing Tampa TRACON
Tue 06:24:00 PM 27.6420 -82.5965 353° North  Level FlightAware Approximate
Tue 06:24:01 PM 27.4667 -82.5333 318° Northwest 160 184 4,100  Level Tampa TRACON
Tue 06:25:01 PM 27.4833 -82.5667 299° West 161 185 4,600 400 Climbing Tampa TRACON
Tue 06:26:01 PM 27.5167 -82.6000 318° Northwest 164 189 4,900 198 Climbing Tampa TRACON
Tue 06:27:02 PM 27.5500 -82.6500 307° West 174 200 5,000 50 Climbing Tampa TRACON
Tue 06:28:02 PM 27.5833 -82.6833 318° Northwest 178 205 5,000  Level Tampa TRACON
Tue 06:29:02 PM 27.6167 -82.7167 318° Northwest 172 198 5,000  Level Tampa TRACON
Tue 06:30:02 PM 27.6500 -82.7667 307° West 174 200 5,000 100 Level Tampa TRACON
Tue 06:31:02 PM 27.6833 -82.8000 318° Northwest 173 199 5,200 300 Climbing Tampa TRACON
Tue 06:32:02 PM 27.7167 -82.8333 318° Northwest 162 186 5,600 450 Climbing Tampa TRACON
Tue 06:33:02 PM 27.7500 -82.8667 318° Northwest 163 188 6,100 500 Climbing Tampa TRACON
Tue 06:34:02 PM 27.8000 -82.8833 344° North 162 186 6,600 500 Climbing Tampa TRACON
Tue 06:35:02 PM 27.8500 -82.8833 360° North 164 189 7,100 500 Climbing Tampa TRACON
Tue 06:36:02 PM 27.8833 -82.8833 360° North 160 184 7,600 450 Climbing Tampa TRACON
Tue 06:37:02 PM 27.9333 -82.8833 360° North 162 186 8,000 200 Climbing Tampa TRACON
Tue 06:38:02 PM 27.9833 -82.9000 344° North 171 197 8,000  Level Tampa TRACON
Tue 06:39:02 PM 28.0333 -82.9000 360° North 180 207 8,000  Level Tampa TRACON
Tue 06:40:02 PM 28.0833 -82.9000 360° North 182 209 8,000 30 Level Tampa TRACON
Tue 06:42:21 PM 28.1875 -82.9136 353° North 168 193 8,100 30 Climbing Jacksonville Center
Tue 06:43:21 PM 28.2333 -82.9186 355° North 163 188 8,100 -50 Level Jacksonville Center
Tue 06:44:21 PM 28.2814 -82.9233 355° North 163 188 8,000 -50 Descending Jacksonville Center
Tue 06:45:21 PM 28.3272 -82.9281 355° North 163 188 8,000  Level Jacksonville Center
Tue 06:46:21 PM 28.3775 -82.9303 358° North 163 188 8,000  Level Jacksonville Center
Tue 06:47:21 PM 28.4253 -82.9375 352° North 163 188 8,000  Level Jacksonville Center
Tue 06:48:21 PM 28.4714 -82.9422 355° North 163 188 8,000  Level Jacksonville Center
Tue 06:49:21 PM 28.5192 -82.9469 355° North 163 188 8,000 50 Level Jacksonville Center
Tue 06:50:21 PM 28.5589 -82.9753 328° Northwest 157 181 8,100 50 Climbing Jacksonville Center
Tue 06:51:21 PM 28.5944 -83.0083 321° Northwest 157 181 8,100 -50 Level Jacksonville Center
Tue 06:52:21 PM 28.6339 -83.0369 328° Northwest 168 193 8,000 -50 Descending Jacksonville Center
Tue 06:53:21 PM 28.6736 -83.0653 328° Northwest 168 193 8,000  Level Jacksonville Center
Tue 06:54:21 PM 28.7153 -83.0939 329° Northwest 174 200 8,000  Level Jacksonville Center
Tue 06:55:21 PM 28.7528 -83.1247 324° Northwest 174 200 8,000  Level Jacksonville Center
Tue 06:56:21 PM 28.7944 -83.1556 327° Northwest 174 200 8,000  Level Jacksonville Center
Tue 06:57:21 PM 28.8342 -83.1864 326° Northwest 174 200 8,000  Level Jacksonville Center
Tue 06:58:21 PM 28.8736 -83.2150 328° Northwest 174 200 8,000  Level Jacksonville Center
Tue 06:59:21 PM 28.9133 -83.2436 328° Northwest 174 200 8,000  Level Jacksonville Center
Tue 07:00:21 PM 28.9528 -83.2722 328° Northwest 174 200 8,000  Level Jacksonville Center
Tue 07:01:21 PM 28.9944 -83.3008 329° Northwest 174 200 8,000  Level Jacksonville Center
Tue 07:02:21 PM 29.0319 -83.3319 324° Northwest 174 200 8,000  Level Jacksonville Center
Tue 07:03:21 PM 29.0736 -83.3606 329° Northwest 174 200 8,000  Level Jacksonville Center
Tue 07:04:21 PM 29.1153 -83.3917 327° Northwest 174 200 8,000  Level Jacksonville Center
Tue 07:05:21 PM 29.1528 -83.4181 328° Northwest 174 200 8,000  Level Jacksonville Center
Tue 07:06:21 PM 29.1922 -83.4492 325° Northwest 174 200 8,000  Level Jacksonville Center
Tue 07:07:21 PM 29.2317 -83.4781 327° Northwest 174 200 8,000  Level Jacksonville Center
Tue 07:08:21 PM 29.2714 -83.5067 328° Northwest 174 200 8,000  Level Jacksonville Center
Tue 07:09:21 PM 29.3108 -83.5356 327° Northwest 174 200 8,000 50 Level Jacksonville Center
Tue 07:10:21 PM 29.3503 -83.5644 327° Northwest 174 200 8,100  Climbing Jacksonville Center
Tue 07:11:21 PM 29.3897 -83.5956 326° Northwest 174 200 8,000 -50 Descending Jacksonville Center
Tue 07:12:21 PM 29.4294 -83.6244 328° Northwest 174 200 8,000  Level Jacksonville Center
Tue 07:13:21 PM 29.4689 -83.6536 327° Northwest 174 200 8,000  Level Jacksonville Center
Tue 07:14:21 PM 29.5083 -83.6825 327° Northwest 174 200 8,000  Level Jacksonville Center
Tue 07:15:21 PM 29.5478 -83.7114 327° Northwest 174 200 8,000  Level Jacksonville Center
Tue 07:16:21 PM 29.5853 -83.7403 326° Northwest 174 200 8,000 50 Level Jacksonville Center
Tue 07:17:21 PM 29.6247 -83.7717 325° Northwest 174 200 8,100  Climbing Jacksonville Center
Tue 07:18:21 PM 29.6642 -83.7983 330° Northwest 174 200 8,000 -50 Descending Jacksonville Center
Tue 07:19:21 PM 29.7056 -83.8300 326° Northwest 174 200 8,000  Level Jacksonville Center
Tue 07:20:21 PM 29.7408 -83.8567 327° Northwest 174 200 8,000 -150 Level Jacksonville Center
Tue 07:21:21 PM 29.7825 -83.8906 325° Northwest 174 200 7,700 -250 Descending Jacksonville Center
Tue 07:22:21 PM 29.8239 -83.9197 329° Northwest 174 200 7,500 -250 Descending Jacksonville Center
Tue 07:23:21 PM 29.8656 -83.9511 327° Northwest 174 200 7,200 -300 Descending Jacksonville Center
Tue 07:24:21 PM 29.9089 -83.9828 328° Northwest 174 200 6,900 -300 Descending Jacksonville Center
Tue 07:25:21 PM 29.9483 -84.0169 323° Northwest 174 200 6,600 -300 Descending Jacksonville Center
Tue 07:26:21 PM 29.9900 -84.0461 329° Northwest 174 200 6,300 -350 Descending Jacksonville Center
Tue 07:27:21 PM 30.0333 -84.0756 330° Northwest 174 200 5,900 -400 Descending Jacksonville Center
Tue 07:29:00 PM 30.0921 -84.1229 328° Northwest  Level FlightAware Approximate
Tue 07:36:00 PM 30.3435 -84.3201 327° Northwest  Level FlightAware Approximate
Tue 07:37:00 PM 30.3800 -84.3475 327° Northwest  Level FlightAware Approximate
Tue 07:38:00 PM 30.3833 -84.3500 327° Northwest  Level FlightAware Approximate
Tue 07:39:00 PM 30.3967 -84.3509 327° Northwest  Level Estimated
Tue 07:40:00 PM 30.3967 -84.3509 327° Northwest  Level Estimated
Tue 07:41:00 PM 30.3967 -84.3509 327° Northwest  Level Estimated
Tue 07:42:00 PM 30.3967 -84.3509 327° Northwest  Level Estimated
Tue 07:43:00 PM 30.3967 -84.3509 327° Northwest  Level Estimated
Tue 07:44:00 PM 30.3967 -84.3509 327° Northwest  Level Estimated

Login

Don't have an account? Register now (free) for customized features, flight alerts, and more!